Aérodrome :
LOGIN :

S'inscrire | Disclaimer

   EN    FR    IT 

 










Légende :    VFR   VFR Marginal   IFR   IFR Intensif   IFR Très Intensif
Visi : 
Plafond : 
>= 8 km
>= 3000ft
5 à 8 km
1000 à 3000 ft
1500m à 5 km
500 à 1000 ft
800 à 1500m
200 à 500 ft
< 800m
< 200 ft
Symboles :   Orages  Brouillard  Fortes neiges  Fortes précipitations  Vent > 20 kt
SIGMETs :   Divers  Orages  Givrage  Turbulence  Onde Orograph.  Cendres Volcan.






- Altitude de l'aérodrome : 423 ft
- Code IATA : PIS


LFBI - Poitiers

DERNIER METAR :
  • 180630Z AUTO 20006KT 9999 ///TCU 02/02 Q1031 TEMPO 4000 SHRA

METARs EXPIRÉS :
  • 180600Z AUTO 19006KT 9999 FEW025 SCT046 OVC210 03/02 Q1031 TEMPO 4000 SHRA BKN020TCU BECMG 25010KT
  • 180530Z AUTO 19004KT 9999 FEW032 SCT047 02/02 Q1031 TEMPO 4000 SHRA BKN020TCU BECMG 25010KT
  • 180500Z AUTO 20007KT 9999 SCT036 SCT049 02/02 Q1031 NOSIG
  • 180430Z AUTO 21007KT CAVOK 01/01 Q1031 NOSIG
  • 180400Z AUTO 22008KT CAVOK 02/02 Q1031 NOSIG

TAF TAF LFBI
Valide du 18 à 06h jusqu'au 19 à 06h UTC


180500Z 1806/1906 25010KT 9999 SCT030
TEMPO 1806/1818 4000 SHRA BKN020TCU
BECMG 1900/1902 BKN020
TEMPO 1904/1906 3000 -RA BKN008



MET'MAP, la Météo Aéronautique d'un coup d'oeil ! - Copyright ORBIFLY Décembre 2007 - Disclaimer

ORBIFLY MET'MAP TEAM :

Programmation & Développement : Alexandra Zaïnal
Sur une idée originale de : Baudouin d'Aumeries
Assistance à la programmation : Marc-Olivier Méhu
Soutien technique & logistique : Manuel Goepfert

Contact : metmap@orbifly.com




SOURCES & CREDITS :

   NOAA